sensor_id;sensor_type;location;lat;lon;timestamp;P1;durP1;ratioP1;P2;durP2;ratioP2
16800;SDS011;8518;53.236;10.384;2023-03-12T00:01:38;5.07;;;2.53;;
16800;SDS011;8518;53.236;10.384;2023-03-12T00:04:03;7.50;;;3.10;;
16800;SDS011;8518;53.236;10.384;2023-03-12T00:06:30;4.57;;;2.70;;
16800;SDS011;8518;53.236;10.384;2023-03-12T00:08:56;5.83;;;2.80;;
16800;SDS011;8518;53.236;10.384;2023-03-12T00:11:23;5.97;;;2.90;;
16800;SDS011;8518;53.236;10.384;2023-03-12T00:17:11;4.57;;;2.50;;
16800;SDS011;8518;53.236;10.384;2023-03-12T00:19:37;4.43;;;2.67;;
16800;SDS011;8518;53.236;10.384;2023-03-12T00:25:30;6.90;;;3.03;;
16800;SDS011;8518;53.236;10.384;2023-03-12T00:27:55;6.83;;;3.70;;
16800;SDS011;8518;53.236;10.384;2023-03-12T00:30:24;4.13;;;2.70;;
16800;SDS011;8518;53.236;10.384;2023-03-12T00:36:15;7.10;;;3.57;;
16800;SDS011;8518;53.236;10.384;2023-03-12T00:38:42;8.90;;;4.00;;
16800;SDS011;8518;53.236;10.384;2023-03-12T00:41:08;6.53;;;3.30;;
16800;SDS011;8518;53.236;10.384;2023-03-12T00:46:58;4.87;;;3.20;;
16800;SDS011;8518;53.236;10.384;2023-03-12T00:49:24;7.20;;;3.07;;
16800;SDS011;8518;53.236;10.384;2023-03-12T00:51:51;5.50;;;2.90;;
16800;SDS011;8518;53.236;10.384;2023-03-12T00:54:18;5.87;;;2.87;;
16800;SDS011;8518;53.236;10.384;2023-03-12T00:56:46;7.20;;;2.70;;
16800;SDS011;8518;53.236;10.384;2023-03-12T00:59:12;6.73;;;3.23;;
16800;SDS011;8518;53.236;10.384;2023-03-12T01:01:39;5.83;;;3.47;;
16800;SDS011;8518;53.236;10.384;2023-03-12T01:04:06;4.73;;;3.40;;
16800;SDS011;8518;53.236;10.384;2023-03-12T01:06:32;8.37;;;5.40;;
16800;SDS011;8518;53.236;10.384;2023-03-12T01:09:04;4.87;;;3.43;;
16800;SDS011;8518;53.236;10.384;2023-03-12T01:11:31;5.77;;;3.33;;
16800;SDS011;8518;53.236;10.384;2023-03-12T01:14:01;6.20;;;3.53;;
16800;SDS011;8518;53.236;10.384;2023-03-12T01:16:28;5.40;;;3.07;;
16800;SDS011;8518;53.236;10.384;2023-03-12T01:18:57;5.60;;;3.77;;
16800;SDS011;8518;53.236;10.384;2023-03-12T01:21:24;7.10;;;3.70;;
16800;SDS011;8518;53.236;10.384;2023-03-12T01:27:12;7.83;;;4.13;;
16800;SDS011;8518;53.236;10.384;2023-03-12T01:29:38;6.57;;;3.60;;
16800;SDS011;8518;53.236;10.384;2023-03-12T01:35:26;7.03;;;3.90;;
16800;SDS011;8518;53.236;10.384;2023-03-12T01:37:51;7.97;;;3.77;;
16800;SDS011;8518;53.236;10.384;2023-03-12T01:40:18;7.63;;;4.03;;
16800;SDS011;8518;53.236;10.384;2023-03-12T01:49:05;5.53;;;3.30;;
16800;SDS011;8518;53.236;10.384;2023-03-12T01:51:41;8.70;;;4.30;;
16800;SDS011;8518;53.236;10.384;2023-03-12T01:54:12;8.03;;;3.53;;
16800;SDS011;8518;53.236;10.384;2023-03-12T01:56:47;5.67;;;3.63;;
16800;SDS011;8518;53.236;10.384;2023-03-12T01:59:16;4.23;;;3.33;;
16800;SDS011;8518;53.236;10.384;2023-03-12T02:01:45;7.50;;;3.83;;
16800;SDS011;8518;53.236;10.384;2023-03-12T02:04:12;5.63;;;3.27;;
16800;SDS011;8518;53.236;10.384;2023-03-12T02:06:55;6.10;;;3.60;;
16800;SDS011;8518;53.236;10.384;2023-03-12T02:09:26;4.73;;;3.80;;
16800;SDS011;8518;53.236;10.384;2023-03-12T02:11:53;5.37;;;3.53;;
16800;SDS011;8518;53.236;10.384;2023-03-12T02:14:19;7.47;;;3.20;;
16800;SDS011;8518;53.236;10.384;2023-03-12T02:16:45;5.27;;;3.47;;
16800;SDS011;8518;53.236;10.384;2023-03-12T02:22:24;6.77;;;3.23;;
16800;SDS011;8518;53.236;10.384;2023-03-12T02:27:45;4.97;;;2.77;;
16800;SDS011;8518;53.236;10.384;2023-03-12T02:30:12;6.03;;;3.30;;
16800;SDS011;8518;53.236;10.384;2023-03-12T02:36:02;6.67;;;3.23;;
16800;SDS011;8518;53.236;10.384;2023-03-12T02:38:39;6.10;;;3.27;;
16800;SDS011;8518;53.236;10.384;2023-03-12T02:46:59;6.57;;;3.97;;
16800;SDS011;8518;53.236;10.384;2023-03-12T02:52:49;7.63;;;3.47;;
16800;SDS011;8518;53.236;10.384;2023-03-12T02:55:15;4.87;;;3.20;;
16800;SDS011;8518;53.236;10.384;2023-03-12T02:57:41;5.17;;;2.90;;
16800;SDS011;8518;53.236;10.384;2023-03-12T03:00:08;5.40;;;3.47;;
16800;SDS011;8518;53.236;10.384;2023-03-12T03:06:00;5.57;;;3.20;;
16800;SDS011;8518;53.236;10.384;2023-03-12T03:08:26;6.20;;;3.70;;
16800;SDS011;8518;53.236;10.384;2023-03-12T03:10:52;6.13;;;3.30;;
16800;SDS011;8518;53.236;10.384;2023-03-12T03:16:40;8.13;;;3.20;;
16800;SDS011;8518;53.236;10.384;2023-03-12T03:19:06;5.13;;;3.37;;
16800;SDS011;8518;53.236;10.384;2023-03-12T03:21:32;7.67;;;3.20;;
16800;SDS011;8518;53.236;10.384;2023-03-12T03:23:59;6.27;;;3.70;;
16800;SDS011;8518;53.236;10.384;2023-03-12T03:26:25;5.83;;;3.17;;
16800;SDS011;8518;53.236;10.384;2023-03-12T03:28:51;6.13;;;3.53;;
16800;SDS011;8518;53.236;10.384;2023-03-12T03:31:17;6.57;;;3.50;;
16800;SDS011;8518;53.236;10.384;2023-03-12T03:37:07;4.87;;;3.13;;
16800;SDS011;8518;53.236;10.384;2023-03-12T03:39:36;5.93;;;3.67;;
16800;SDS011;8518;53.236;10.384;2023-03-12T03:45:24;3.50;;;2.93;;
16800;SDS011;8518;53.236;10.384;2023-03-12T03:51:12;4.60;;;3.23;;
16800;SDS011;8518;53.236;10.384;2023-03-12T03:57:00;4.87;;;3.30;;
16800;SDS011;8518;53.236;10.384;2023-03-12T03:59:26;6.57;;;3.73;;
16800;SDS011;8518;53.236;10.384;2023-03-12T04:01:52;5.63;;;3.60;;
16800;SDS011;8518;53.236;10.384;2023-03-12T04:04:17;3.63;;;3.20;;
16800;SDS011;8518;53.236;10.384;2023-03-12T04:06:43;4.70;;;3.53;;
16800;SDS011;8518;53.236;10.384;2023-03-12T04:09:09;4.37;;;3.20;;
16800;SDS011;8518;53.236;10.384;2023-03-12T04:11:35;5.17;;;3.50;;
16800;SDS011;8518;53.236;10.384;2023-03-12T04:14:00;6.20;;;3.23;;
16800;SDS011;8518;53.236;10.384;2023-03-12T04:16:26;6.97;;;3.67;;
16800;SDS011;8518;53.236;10.384;2023-03-12T04:18:52;4.27;;;3.33;;
16800;SDS011;8518;53.236;10.384;2023-03-12T04:21:17;5.40;;;3.27;;
16800;SDS011;8518;53.236;10.384;2023-03-12T04:27:06;5.70;;;3.60;;
16800;SDS011;8518;53.236;10.384;2023-03-12T04:29:33;4.67;;;3.50;;
16800;SDS011;8518;53.236;10.384;2023-03-12T04:35:22;4.60;;;3.53;;
16800;SDS011;8518;53.236;10.384;2023-03-12T04:37:49;5.07;;;3.40;;
16800;SDS011;8518;53.236;10.384;2023-03-12T04:40:14;7.83;;;3.90;;
16800;SDS011;8518;53.236;10.384;2023-03-12T04:46:05;7.60;;;4.13;;
16800;SDS011;8518;53.236;10.384;2023-03-12T04:51:57;4.10;;;3.53;;
16800;SDS011;8518;53.236;10.384;2023-03-12T04:54:23;5.97;;;3.93;;
16800;SDS011;8518;53.236;10.384;2023-03-12T04:56:49;4.87;;;3.53;;
16800;SDS011;8518;53.236;10.384;2023-03-12T04:59:15;5.77;;;3.77;;
16800;SDS011;8518;53.236;10.384;2023-03-12T05:01:41;6.37;;;3.80;;
16800;SDS011;8518;53.236;10.384;2023-03-12T05:04:08;5.73;;;3.80;;
16800;SDS011;8518;53.236;10.384;2023-03-12T05:06:33;5.33;;;4.43;;
16800;SDS011;8518;53.236;10.384;2023-03-12T05:09:01;7.10;;;4.37;;
16800;SDS011;8518;53.236;10.384;2023-03-12T05:11:27;5.73;;;4.00;;
16800;SDS011;8518;53.236;10.384;2023-03-12T05:17:15;7.17;;;3.90;;
16800;SDS011;8518;53.236;10.384;2023-03-12T05:19:41;6.70;;;4.03;;
16800;SDS011;8518;53.236;10.384;2023-03-12T05:25:29;6.07;;;3.93;;
16800;SDS011;8518;53.236;10.384;2023-03-12T05:27:54;6.83;;;4.27;;
16800;SDS011;8518;53.236;10.384;2023-03-12T05:30:20;5.63;;;4.90;;
16800;SDS011;8518;53.236;10.384;2023-03-12T05:36:08;4.10;;;3.40;;
16800;SDS011;8518;53.236;10.384;2023-03-12T05:38:35;7.57;;;4.30;;
16800;SDS011;8518;53.236;10.384;2023-03-12T05:41:01;7.83;;;4.20;;
16800;SDS011;8518;53.236;10.384;2023-03-12T05:46:49;4.53;;;3.93;;
16800;SDS011;8518;53.236;10.384;2023-03-12T05:52:37;7.10;;;4.10;;
16800;SDS011;8518;53.236;10.384;2023-03-12T05:55:03;7.27;;;4.33;;
16800;SDS011;8518;53.236;10.384;2023-03-12T05:57:29;6.07;;;4.23;;
16800;SDS011;8518;53.236;10.384;2023-03-12T05:59:55;7.60;;;4.47;;
16800;SDS011;8518;53.236;10.384;2023-03-12T06:05:44;4.83;;;3.83;;
16800;SDS011;8518;53.236;10.384;2023-03-12T06:08:12;8.23;;;3.97;;
16800;SDS011;8518;53.236;10.384;2023-03-12T06:10:37;6.20;;;4.17;;
16800;SDS011;8518;53.236;10.384;2023-03-12T06:16:25;4.13;;;3.43;;
16800;SDS011;8518;53.236;10.384;2023-03-12T06:18:53;4.43;;;3.50;;
16800;SDS011;8518;53.236;10.384;2023-03-12T06:21:24;5.87;;;3.97;;
16800;SDS011;8518;53.236;10.384;2023-03-12T06:27:16;4.10;;;3.10;;
16800;SDS011;8518;53.236;10.384;2023-03-12T06:29:42;6.10;;;3.70;;
16800;SDS011;8518;53.236;10.384;2023-03-12T06:35:30;5.20;;;3.70;;
16800;SDS011;8518;53.236;10.384;2023-03-12T06:37:55;5.67;;;3.50;;
16800;SDS011;8518;53.236;10.384;2023-03-12T06:40:21;4.43;;;3.20;;
16800;SDS011;8518;53.236;10.384;2023-03-12T06:46:10;4.63;;;3.17;;
16800;SDS011;8518;53.236;10.384;2023-03-12T06:52:00;4.17;;;3.10;;
16800;SDS011;8518;53.236;10.384;2023-03-12T06:54:26;4.27;;;2.73;;
16800;SDS011;8518;53.236;10.384;2023-03-12T06:56:51;4.93;;;3.37;;
16800;SDS011;8518;53.236;10.384;2023-03-12T06:59:17;3.67;;;2.77;;
16800;SDS011;8518;53.236;10.384;2023-03-12T07:01:45;4.53;;;3.03;;
16800;SDS011;8518;53.236;10.384;2023-03-12T07:04:12;4.83;;;2.73;;
16800;SDS011;8518;53.236;10.384;2023-03-12T07:06:38;5.30;;;3.10;;
16800;SDS011;8518;53.236;10.384;2023-03-12T07:09:04;3.00;;;2.70;;
16800;SDS011;8518;53.236;10.384;2023-03-12T07:11:30;5.07;;;3.37;;
16800;SDS011;8518;53.236;10.384;2023-03-12T07:17:18;5.70;;;2.73;;
16800;SDS011;8518;53.236;10.384;2023-03-12T07:19:43;2.83;;;2.53;;
16800;SDS011;8518;53.236;10.384;2023-03-12T07:25:35;5.00;;;2.57;;
16800;SDS011;8518;53.236;10.384;2023-03-12T07:31:26;3.27;;;2.20;;
16800;SDS011;8518;53.236;10.384;2023-03-12T07:37:14;5.03;;;2.53;;
16800;SDS011;8518;53.236;10.384;2023-03-12T07:39:41;6.50;;;2.70;;
16800;SDS011;8518;53.236;10.384;2023-03-12T07:45:29;3.93;;;2.50;;
16800;SDS011;8518;53.236;10.384;2023-03-12T07:47:55;4.40;;;2.60;;
16800;SDS011;8518;53.236;10.384;2023-03-12T07:50:22;4.47;;;2.53;;
16800;SDS011;8518;53.236;10.384;2023-03-12T07:56:09;5.33;;;2.67;;
16800;SDS011;8518;53.236;10.384;2023-03-12T07:58:35;3.27;;;2.30;;
16800;SDS011;8518;53.236;10.384;2023-03-12T08:01:04;4.27;;;2.60;;
16800;SDS011;8518;53.236;10.384;2023-03-12T08:06:52;2.90;;;2.17;;
16800;SDS011;8518;53.236;10.384;2023-03-12T08:09:18;3.87;;;1.90;;
16800;SDS011;8518;53.236;10.384;2023-03-12T08:11:44;4.27;;;2.40;;
16800;SDS011;8518;53.236;10.384;2023-03-12T08:14:09;5.17;;;2.40;;
16800;SDS011;8518;53.236;10.384;2023-03-12T08:16:35;6.40;;;2.57;;
16800;SDS011;8518;53.236;10.384;2023-03-12T08:19:00;4.57;;;2.33;;
16800;SDS011;8518;53.236;10.384;2023-03-12T08:21:26;2.70;;;2.10;;
16800;SDS011;8518;53.236;10.384;2023-03-12T08:27:14;4.90;;;2.77;;
16800;SDS011;8518;53.236;10.384;2023-03-12T08:29:40;4.43;;;2.50;;
16800;SDS011;8518;53.236;10.384;2023-03-12T08:35:28;4.60;;;2.37;;
16800;SDS011;8518;53.236;10.384;2023-03-12T08:37:56;3.17;;;2.10;;
16800;SDS011;8518;53.236;10.384;2023-03-12T08:40:24;4.03;;;2.37;;
16800;SDS011;8518;53.236;10.384;2023-03-12T08:46:12;3.83;;;1.97;;
16800;SDS011;8518;53.236;10.384;2023-03-12T08:52:02;4.93;;;2.33;;
16800;SDS011;8518;53.236;10.384;2023-03-12T08:54:28;4.07;;;2.60;;
16800;SDS011;8518;53.236;10.384;2023-03-12T08:56:53;3.03;;;2.10;;
16800;SDS011;8518;53.236;10.384;2023-03-12T08:59:19;4.83;;;2.53;;
16800;SDS011;8518;53.236;10.384;2023-03-12T09:01:52;3.37;;;2.67;;
16800;SDS011;8518;53.236;10.384;2023-03-12T09:04:19;4.93;;;2.43;;
16800;SDS011;8518;53.236;10.384;2023-03-12T09:06:54;3.93;;;2.73;;
16800;SDS011;8518;53.236;10.384;2023-03-12T09:09:19;4.13;;;2.50;;
16800;SDS011;8518;53.236;10.384;2023-03-12T09:11:45;2.50;;;2.30;;
16800;SDS011;8518;53.236;10.384;2023-03-12T09:14:11;5.10;;;2.80;;
16800;SDS011;8518;53.236;10.384;2023-03-12T09:16:37;3.60;;;2.30;;
16800;SDS011;8518;53.236;10.384;2023-03-12T09:19:05;4.63;;;2.97;;
16800;SDS011;8518;53.236;10.384;2023-03-12T09:21:34;4.43;;;3.17;;
16800;SDS011;8518;53.236;10.384;2023-03-12T09:24:00;4.33;;;2.60;;
16800;SDS011;8518;53.236;10.384;2023-03-12T09:26:26;4.97;;;2.53;;
16800;SDS011;8518;53.236;10.384;2023-03-12T09:28:51;4.17;;;2.60;;
16800;SDS011;8518;53.236;10.384;2023-03-12T09:31:17;4.60;;;2.37;;
16800;SDS011;8518;53.236;10.384;2023-03-12T09:37:05;4.17;;;2.23;;
16800;SDS011;8518;53.236;10.384;2023-03-12T09:39:31;4.03;;;2.23;;
16800;SDS011;8518;53.236;10.384;2023-03-12T09:41:56;4.87;;;2.10;;
16800;SDS011;8518;53.236;10.384;2023-03-12T09:44:26;3.60;;;2.17;;
16800;SDS011;8518;53.236;10.384;2023-03-12T09:47:15;5.17;;;2.37;;
16800;SDS011;8518;53.236;10.384;2023-03-12T09:50:03;4.33;;;2.20;;
16800;SDS011;8518;53.236;10.384;2023-03-12T09:56:03;3.23;;;2.17;;
16800;SDS011;8518;53.236;10.384;2023-03-12T09:58:34;3.40;;;2.20;;
16800;SDS011;8518;53.236;10.384;2023-03-12T10:04:14;3.83;;;2.40;;
16800;SDS011;8518;53.236;10.384;2023-03-12T10:16:07;3.63;;;2.37;;
16800;SDS011;8518;53.236;10.384;2023-03-12T10:18:52;3.97;;;2.53;;
16800;SDS011;8518;53.236;10.384;2023-03-12T10:21:28;4.97;;;2.80;;
16800;SDS011;8518;53.236;10.384;2023-03-12T10:26:54;3.10;;;2.27;;
16800;SDS011;8518;53.236;10.384;2023-03-12T10:29:25;3.90;;;2.23;;
16800;SDS011;8518;53.236;10.384;2023-03-12T10:31:56;4.87;;;2.93;;
16800;SDS011;8518;53.236;10.384;2023-03-12T10:34:37;4.37;;;2.27;;
16800;SDS011;8518;53.236;10.384;2023-03-12T10:37:28;4.90;;;2.60;;
16800;SDS011;8518;53.236;10.384;2023-03-12T10:40:01;3.37;;;2.47;;
16800;SDS011;8518;53.236;10.384;2023-03-12T10:48:43;4.27;;;2.07;;
16800;SDS011;8518;53.236;10.384;2023-03-12T10:51:11;3.30;;;2.23;;
16800;SDS011;8518;53.236;10.384;2023-03-12T10:56:59;2.53;;;2.03;;
16800;SDS011;8518;53.236;10.384;2023-03-12T11:02:54;5.77;;;2.20;;
16800;SDS011;8518;53.236;10.384;2023-03-12T11:07:54;10.53;;;5.97;;
16800;SDS011;8518;53.236;10.384;2023-03-12T11:10:24;4.47;;;2.37;;
16800;SDS011;8518;53.236;10.384;2023-03-12T11:16:35;7.00;;;2.60;;
16800;SDS011;8518;53.236;10.384;2023-03-12T11:19:03;4.00;;;2.30;;
16800;SDS011;8518;53.236;10.384;2023-03-12T11:21:34;6.00;;;2.73;;
16800;SDS011;8518;53.236;10.384;2023-03-12T11:24:03;3.63;;;1.93;;
16800;SDS011;8518;53.236;10.384;2023-03-12T11:29:04;5.13;;;1.80;;
16800;SDS011;8518;53.236;10.384;2023-03-12T11:31:44;2.90;;;1.93;;
16800;SDS011;8518;53.236;10.384;2023-03-12T11:34:34;5.90;;;1.90;;
16800;SDS011;8518;53.236;10.384;2023-03-12T11:37:13;5.50;;;2.07;;
16800;SDS011;8518;53.236;10.384;2023-03-12T12:10:26;3.23;;;1.40;;
16800;SDS011;8518;53.236;10.384;2023-03-12T12:37:16;3.70;;;1.27;;
16800;SDS011;8518;53.236;10.384;2023-03-12T12:39:53;2.63;;;1.17;;
16800;SDS011;8518;53.236;10.384;2023-03-12T12:46:01;2.23;;;1.40;;
16800;SDS011;8518;53.236;10.384;2023-03-12T12:50:55;2.67;;;1.70;;
16800;SDS011;8518;53.236;10.384;2023-03-12T12:56:53;3.57;;;1.63;;
16800;SDS011;8518;53.236;10.384;2023-03-12T13:11:24;4.13;;;1.77;;
16800;SDS011;8518;53.236;10.384;2023-03-12T13:14:18;9.00;;;3.80;;
16800;SDS011;8518;53.236;10.384;2023-03-12T13:17:04;6.43;;;2.40;;
16800;SDS011;8518;53.236;10.384;2023-03-12T13:20:11;6.17;;;2.60;;
16800;SDS011;8518;53.236;10.384;2023-03-12T13:26:21;5.57;;;3.13;;
16800;SDS011;8518;53.236;10.384;2023-03-12T13:38:02;4.37;;;2.10;;
16800;SDS011;8518;53.236;10.384;2023-03-12T13:40:33;5.60;;;1.40;;
16800;SDS011;8518;53.236;10.384;2023-03-12T13:46:07;3.37;;;1.80;;
16800;SDS011;8518;53.236;10.384;2023-03-12T13:48:56;4.43;;;1.47;;
16800;SDS011;8518;53.236;10.384;2023-03-12T13:51:29;4.67;;;1.67;;
16800;SDS011;8518;53.236;10.384;2023-03-12T14:00:04;5.03;;;2.13;;
16800;SDS011;8518;53.236;10.384;2023-03-12T14:05:59;3.87;;;1.77;;
16800;SDS011;8518;53.236;10.384;2023-03-12T14:17:18;4.97;;;1.93;;
16800;SDS011;8518;53.236;10.384;2023-03-12T14:25:45;3.77;;;2.30;;
16800;SDS011;8518;53.236;10.384;2023-03-12T14:28:13;3.03;;;2.17;;
16800;SDS011;8518;53.236;10.384;2023-03-12T14:30:45;4.07;;;2.43;;
16800;SDS011;8518;53.236;10.384;2023-03-12T14:36:51;5.10;;;2.50;;
16800;SDS011;8518;53.236;10.384;2023-03-12T14:39:50;3.33;;;2.50;;
16800;SDS011;8518;53.236;10.384;2023-03-12T14:45:44;6.33;;;3.80;;
16800;SDS011;8518;53.236;10.384;2023-03-12T14:48:31;4.30;;;3.00;;
16800;SDS011;8518;53.236;10.384;2023-03-12T14:51:03;4.80;;;2.63;;
16800;SDS011;8518;53.236;10.384;2023-03-12T14:56:52;4.87;;;2.77;;
16800;SDS011;8518;53.236;10.384;2023-03-12T14:59:24;5.50;;;2.80;;
16800;SDS011;8518;53.236;10.384;2023-03-12T15:05:21;7.40;;;2.83;;
16800;SDS011;8518;53.236;10.384;2023-03-12T15:07:49;3.33;;;2.60;;
16800;SDS011;8518;53.236;10.384;2023-03-12T15:10:19;4.17;;;2.67;;
16800;SDS011;8518;53.236;10.384;2023-03-12T15:16:10;7.00;;;3.27;;
16800;SDS011;8518;53.236;10.384;2023-03-12T15:18:35;5.10;;;3.20;;
16800;SDS011;8518;53.236;10.384;2023-03-12T15:21:05;4.53;;;3.20;;
16800;SDS011;8518;53.236;10.384;2023-03-12T15:26:53;5.37;;;3.03;;
16800;SDS011;8518;53.236;10.384;2023-03-12T15:29:23;4.17;;;2.83;;
16800;SDS011;8518;53.236;10.384;2023-03-12T15:31:57;3.77;;;3.03;;
16800;SDS011;8518;53.236;10.384;2023-03-12T15:34:34;3.63;;;2.87;;
16800;SDS011;8518;53.236;10.384;2023-03-12T15:40:24;4.83;;;3.60;;
16800;SDS011;8518;53.236;10.384;2023-03-12T15:46:19;4.23;;;3.17;;
16800;SDS011;8518;53.236;10.384;2023-03-12T15:48:55;6.73;;;3.70;;
16800;SDS011;8518;53.236;10.384;2023-03-12T15:51:27;5.53;;;3.50;;
16800;SDS011;8518;53.236;10.384;2023-03-12T15:57:24;5.17;;;4.40;;
16800;SDS011;8518;53.236;10.384;2023-03-12T16:06:29;8.27;;;6.00;;
16800;SDS011;8518;53.236;10.384;2023-03-12T16:15:35;4.97;;;4.37;;
16800;SDS011;8518;53.236;10.384;2023-03-12T16:18:04;5.97;;;5.37;;
16800;SDS011;8518;53.236;10.384;2023-03-12T16:20:39;5.20;;;4.47;;
16800;SDS011;8518;53.236;10.384;2023-03-12T16:29:48;7.57;;;5.53;;
16800;SDS011;8518;53.236;10.384;2023-03-12T16:35:45;11.60;;;6.13;;
16800;SDS011;8518;53.236;10.384;2023-03-12T16:38:10;4.60;;;3.83;;
16800;SDS011;8518;53.236;10.384;2023-03-12T16:40:37;7.90;;;5.10;;
16800;SDS011;8518;53.236;10.384;2023-03-12T16:46:38;14.00;;;8.17;;
16800;SDS011;8518;53.236;10.384;2023-03-12T16:49:08;19.00;;;10.97;;
16800;SDS011;8518;53.236;10.384;2023-03-12T16:51:41;13.33;;;6.97;;
16800;SDS011;8518;53.236;10.384;2023-03-12T16:54:06;15.90;;;7.97;;
16800;SDS011;8518;53.236;10.384;2023-03-12T16:56:32;13.93;;;6.60;;
16800;SDS011;8518;53.236;10.384;2023-03-12T16:59:21;35.83;;;11.67;;
16800;SDS011;8518;53.236;10.384;2023-03-12T17:02:07;16.87;;;8.03;;
16800;SDS011;8518;53.236;10.384;2023-03-12T17:04:56;12.30;;;7.57;;
16800;SDS011;8518;53.236;10.384;2023-03-12T17:10:16;21.03;;;8.37;;
16800;SDS011;8518;53.236;10.384;2023-03-12T17:16:26;7.10;;;5.67;;
16800;SDS011;8518;53.236;10.384;2023-03-12T17:18:52;7.07;;;6.37;;
16800;SDS011;8518;53.236;10.384;2023-03-12T17:21:19;7.13;;;6.33;;
16800;SDS011;8518;53.236;10.384;2023-03-12T17:27:18;6.10;;;5.50;;
16800;SDS011;8518;53.236;10.384;2023-03-12T17:33:15;5.97;;;4.80;;
16800;SDS011;8518;53.236;10.384;2023-03-12T17:36:04;6.20;;;5.50;;
16800;SDS011;8518;53.236;10.384;2023-03-12T17:38:32;7.13;;;6.07;;
16800;SDS011;8518;53.236;10.384;2023-03-12T17:41:07;11.53;;;8.60;;
16800;SDS011;8518;53.236;10.384;2023-03-12T17:44:06;7.80;;;6.43;;
16800;SDS011;8518;53.236;10.384;2023-03-12T17:47:05;6.87;;;6.17;;
16800;SDS011;8518;53.236;10.384;2023-03-12T17:49:40;8.23;;;7.40;;
16800;SDS011;8518;53.236;10.384;2023-03-12T17:55:30;7.10;;;6.40;;
16800;SDS011;8518;53.236;10.384;2023-03-12T17:57:57;8.50;;;7.57;;
16800;SDS011;8518;53.236;10.384;2023-03-12T18:00:23;12.07;;;9.87;;
16800;SDS011;8518;53.236;10.384;2023-03-12T18:06:13;8.43;;;7.50;;
16800;SDS011;8518;53.236;10.384;2023-03-12T18:08:38;8.33;;;7.50;;
16800;SDS011;8518;53.236;10.384;2023-03-12T18:11:05;9.00;;;8.10;;
16800;SDS011;8518;53.236;10.384;2023-03-12T18:16:53;10.03;;;8.73;;
16800;SDS011;8518;53.236;10.384;2023-03-12T18:19:18;9.40;;;8.50;;
16800;SDS011;8518;53.236;10.384;2023-03-12T18:21:44;11.40;;;10.00;;
16800;SDS011;8518;53.236;10.384;2023-03-12T18:24:10;13.53;;;11.17;;
16800;SDS011;8518;53.236;10.384;2023-03-12T18:26:35;12.70;;;11.23;;
16800;SDS011;8518;53.236;10.384;2023-03-12T18:29:01;21.27;;;17.27;;
16800;SDS011;8518;53.236;10.384;2023-03-12T18:31:27;16.43;;;12.90;;
16800;SDS011;8518;53.236;10.384;2023-03-12T18:37:15;18.27;;;13.90;;
16800;SDS011;8518;53.236;10.384;2023-03-12T18:39:41;18.97;;;14.73;;
16800;SDS011;8518;53.236;10.384;2023-03-12T18:45:28;26.07;;;17.23;;
16800;SDS011;8518;53.236;10.384;2023-03-12T18:47:55;28.93;;;18.47;;
16800;SDS011;8518;53.236;10.384;2023-03-12T18:50:21;30.70;;;20.47;;
16800;SDS011;8518;53.236;10.384;2023-03-12T18:56:09;31.30;;;21.83;;
16800;SDS011;8518;53.236;10.384;2023-03-12T18:58:35;37.73;;;23.80;;
16800;SDS011;8518;53.236;10.384;2023-03-12T19:01:01;34.97;;;23.77;;
16800;SDS011;8518;53.236;10.384;2023-03-12T19:06:49;39.37;;;24.60;;
16800;SDS011;8518;53.236;10.384;2023-03-12T19:09:18;40.40;;;24.00;;
16800;SDS011;8518;53.236;10.384;2023-03-12T19:11:47;39.07;;;25.43;;
16800;SDS011;8518;53.236;10.384;2023-03-12T19:14:13;41.17;;;24.57;;
16800;SDS011;8518;53.236;10.384;2023-03-12T19:16:40;46.50;;;25.90;;
16800;SDS011;8518;53.236;10.384;2023-03-12T19:19:06;41.23;;;25.93;;
16800;SDS011;8518;53.236;10.384;2023-03-12T19:21:32;40.07;;;24.90;;
16800;SDS011;8518;53.236;10.384;2023-03-12T19:23:58;42.67;;;25.43;;
16800;SDS011;8518;53.236;10.384;2023-03-12T19:26:24;41.13;;;25.63;;
16800;SDS011;8518;53.236;10.384;2023-03-12T19:28:50;43.60;;;25.93;;
16800;SDS011;8518;53.236;10.384;2023-03-12T19:31:24;47.30;;;26.87;;
16800;SDS011;8518;53.236;10.384;2023-03-12T19:34:18;39.73;;;25.53;;
16800;SDS011;8518;53.236;10.384;2023-03-12T19:36:45;40.13;;;25.40;;
16800;SDS011;8518;53.236;10.384;2023-03-12T19:39:12;43.00;;;26.50;;
16800;SDS011;8518;53.236;10.384;2023-03-12T19:41:39;41.20;;;25.97;;
16800;SDS011;8518;53.236;10.384;2023-03-12T19:44:05;44.60;;;25.90;;
16800;SDS011;8518;53.236;10.384;2023-03-12T19:46:31;42.07;;;26.47;;
16800;SDS011;8518;53.236;10.384;2023-03-12T19:48:57;41.97;;;25.60;;
16800;SDS011;8518;53.236;10.384;2023-03-12T19:51:28;42.20;;;26.07;;
16800;SDS011;8518;53.236;10.384;2023-03-12T19:57:32;45.87;;;26.30;;
16800;SDS011;8518;53.236;10.384;2023-03-12T19:59:58;44.17;;;25.93;;
16800;SDS011;8518;53.236;10.384;2023-03-12T20:05:47;35.60;;;24.23;;
16800;SDS011;8518;53.236;10.384;2023-03-12T20:08:17;41.77;;;26.70;;
16800;SDS011;8518;53.236;10.384;2023-03-12T20:10:46;42.93;;;26.67;;
16800;SDS011;8518;53.236;10.384;2023-03-12T20:16:37;37.93;;;24.37;;
16800;SDS011;8518;53.236;10.384;2023-03-12T20:22:28;42.47;;;25.77;;
16800;SDS011;8518;53.236;10.384;2023-03-12T20:24:55;42.10;;;24.97;;
16800;SDS011;8518;53.236;10.384;2023-03-12T20:27:20;36.77;;;22.67;;
16800;SDS011;8518;53.236;10.384;2023-03-12T20:29:46;35.83;;;21.47;;
16800;SDS011;8518;53.236;10.384;2023-03-12T20:35:36;35.37;;;20.97;;
16800;SDS011;8518;53.236;10.384;2023-03-12T20:38:05;37.37;;;21.43;;
16800;SDS011;8518;53.236;10.384;2023-03-12T20:40:46;37.30;;;20.30;;
16800;SDS011;8518;53.236;10.384;2023-03-12T20:46:55;33.33;;;21.00;;
16800;SDS011;8518;53.236;10.384;2023-03-12T20:52:43;39.23;;;19.33;;
16800;SDS011;8518;53.236;10.384;2023-03-12T20:55:09;32.30;;;18.87;;
16800;SDS011;8518;53.236;10.384;2023-03-12T20:57:35;36.20;;;20.03;;
16800;SDS011;8518;53.236;10.384;2023-03-12T21:00:04;38.73;;;20.10;;
16800;SDS011;8518;53.236;10.384;2023-03-12T21:05:52;34.33;;;19.50;;
16800;SDS011;8518;53.236;10.384;2023-03-12T21:08:23;35.17;;;19.00;;
16800;SDS011;8518;53.236;10.384;2023-03-12T21:10:49;46.53;;;21.97;;
16800;SDS011;8518;53.236;10.384;2023-03-12T21:16:37;34.87;;;18.37;;
16800;SDS011;8518;53.236;10.384;2023-03-12T21:25:56;39.17;;;18.30;;
16800;SDS011;8518;53.236;10.384;2023-03-12T21:28:27;39.80;;;18.90;;
16800;SDS011;8518;53.236;10.384;2023-03-12T21:30:53;37.83;;;18.13;;
16800;SDS011;8518;53.236;10.384;2023-03-12T21:36:41;31.87;;;17.97;;
16800;SDS011;8518;53.236;10.384;2023-03-12T21:42:29;29.83;;;16.77;;
16800;SDS011;8518;53.236;10.384;2023-03-12T21:44:57;35.87;;;17.50;;
16800;SDS011;8518;53.236;10.384;2023-03-12T21:47:23;34.67;;;17.47;;
16800;SDS011;8518;53.236;10.384;2023-03-12T21:49:48;34.20;;;17.87;;
16800;SDS011;8518;53.236;10.384;2023-03-12T21:55:36;35.07;;;16.17;;
16800;SDS011;8518;53.236;10.384;2023-03-12T21:58:02;31.47;;;16.67;;
16800;SDS011;8518;53.236;10.384;2023-03-12T22:00:28;31.43;;;16.73;;
16800;SDS011;8518;53.236;10.384;2023-03-12T22:06:18;31.73;;;15.93;;
16800;SDS011;8518;53.236;10.384;2023-03-12T22:08:46;40.27;;;15.30;;
16800;SDS011;8518;53.236;10.384;2023-03-12T22:11:16;26.43;;;15.57;;
16800;SDS011;8518;53.236;10.384;2023-03-12T22:17:03;26.53;;;13.43;;
16800;SDS011;8518;53.236;10.384;2023-03-12T22:19:29;33.20;;;14.00;;
16800;SDS011;8518;53.236;10.384;2023-03-12T22:21:55;28.37;;;13.23;;
16800;SDS011;8518;53.236;10.384;2023-03-12T22:24:20;29.57;;;13.17;;
16800;SDS011;8518;53.236;10.384;2023-03-12T22:26:46;28.57;;;12.17;;
16800;SDS011;8518;53.236;10.384;2023-03-12T22:29:11;30.63;;;12.60;;
16800;SDS011;8518;53.236;10.384;2023-03-12T22:31:37;29.27;;;12.60;;
16800;SDS011;8518;53.236;10.384;2023-03-12T22:34:03;33.83;;;11.97;;